Time;durP1;ratioP1;P1;durP2;ratioP2;P2;SDS_P1;SDS_P2;PMS_P1;PMS_P2;Temp;Humidity;BMP_temperature;BMP_pressure;BME280_temperature;BME280_humidity;BME280_pressure;Samples;Min_cycle;Max_cycle;Signal;HPM_P1;HPM_P2
2023/01/31 00:00:47;;;;;;;16.57;1.83;;;3.90;99.90;;;;;;4163327;28;21030;-79
2023/01/31 00:02:50;;;;;;;15.37;2.03;;;3.90;99.90;;;;;;4155127;28;21090;-80
2023/01/31 00:04:52;;;;;;;14.73;1.80;;;3.90;99.90;;;;;;4155279;28;20536;-80
2023/01/31 00:06:54;;;;;;;11.50;1.90;;;3.80;99.90;;;;;;4155260;28;20486;-80
2023/01/31 00:08:57;;;;;;;11.90;1.70;;;3.80;99.90;;;;;;4161467;28;20549;-80
2023/01/31 00:10:59;;;;;;;12.63;2.03;;;3.80;99.90;;;;;;4155766;28;20925;-79
2023/01/31 00:13:01;;;;;;;13.80;2.43;;;3.80;99.90;;;;;;4153037;28;20457;-79
2023/01/31 00:15:03;;;;;;;17.93;2.40;;;3.90;99.90;;;;;;4153290;28;20497;-81
2023/01/31 00:17:05;;;;;;;13.43;2.60;;;3.90;99.90;;;;;;4165899;28;20478;-79
2023/01/31 00:19:08;;;;;;;13.30;1.83;;;4.20;99.90;;;;;;4160512;28;20504;-79
2023/01/31 00:21:12;;;;;;;14.37;1.60;;;3.90;99.90;;;;;;4156449;28;20509;-79
2023/01/31 00:23:15;;;;;;;9.57;2.13;;;3.90;99.90;;;;;;4154864;28;21001;-79
2023/01/31 00:25:17;;;;;;;14.90;1.77;;;3.90;99.90;;;;;;4156393;28;20483;-79
2023/01/31 00:27:22;;;;;;;19.10;2.53;;;3.80;99.90;;;;;;4155618;28;20496;-79
2023/01/31 00:29:24;;;;;;;15.47;2.23;;;3.80;99.90;;;;;;4160863;28;20457;-79
2023/01/31 00:31:27;;;;;;;15.03;1.80;;;3.80;99.90;;;;;;4166091;28;20442;-81
2023/01/31 00:33:29;;;;;;;16.67;2.30;;;3.80;99.90;;;;;;4159307;28;20461;-79
2023/01/31 00:35:32;;;;;;;16.47;2.13;;;3.80;99.90;;;;;;4178072;28;20548;-80
2023/01/31 00:37:34;;;;;;;15.57;2.63;;;3.80;99.90;;;;;;4163972;28;21003;-80
2023/01/31 00:39:36;;;;;;;10.73;1.77;;;3.80;99.90;;;;;;4161456;28;20466;-80
2023/01/31 00:41:39;;;;;;;14.37;1.97;;;3.90;99.90;;;;;;4165268;28;20477;-80
2023/01/31 00:43:41;;;;;;;12.67;2.20;;;4.40;99.90;;;;;;4159678;28;20451;-80
2023/01/31 00:45:43;;;;;;;14.77;2.60;;;3.90;99.90;;;;;;4158138;28;20838;-80
2023/01/31 00:47:45;;;;;;;14.63;2.50;;;3.90;99.90;;;;;;4154345;28;20471;-79
2023/01/31 00:49:47;;;;;;;12.20;1.53;;;3.90;99.90;;;;;;4152843;28;20843;-80
2023/01/31 00:51:50;;;;;;;13.97;2.23;;;3.90;99.90;;;;;;4165678;28;21009;-80
2023/01/31 00:53:52;;;;;;;18.97;2.03;;;4.00;99.90;;;;;;4156327;28;20454;-79
2023/01/31 00:56:02;;;;;;;18.07;2.37;;;3.90;99.90;;;;;;4154272;28;20478;-79
2023/01/31 00:58:04;;;;;;;15.67;1.97;;;4.00;99.90;;;;;;4153672;28;21217;-79
2023/01/31 01:00:08;;;;;;;15.23;1.80;;;4.00;99.90;;;;;;4163760;28;20480;-79
2023/01/31 01:02:10;;;;;;;17.10;2.30;;;3.90;99.90;;;;;;4167975;28;20485;-78
2023/01/31 01:04:12;;;;;;;7.67;1.97;;;3.90;99.90;;;;;;4164323;28;20450;-79
2023/01/31 01:06:15;;;;;;;15.43;2.30;;;3.80;99.90;;;;;;4171694;28;20470;-79
2023/01/31 01:08:18;;;;;;;15.07;2.33;;;3.80;99.90;;;;;;4156150;28;20461;-79
2023/01/31 01:10:20;;;;;;;10.10;1.73;;;3.80;99.90;;;;;;4155162;28;20949;-79
2023/01/31 01:12:22;;;;;;;12.97;1.80;;;3.70;99.90;;;;;;4155432;28;21411;-79
2023/01/31 01:14:24;;;;;;;8.50;1.40;;;3.70;99.90;;;;;;4155784;28;20835;-79
2023/01/31 01:16:30;;;;;;;5.67;1.70;;;3.60;99.90;;;;;;4153772;28;20537;-80
2023/01/31 01:18:34;;;;;;;11.70;1.70;;;3.60;99.90;;;;;;4150319;28;20442;-79
2023/01/31 01:20:36;;;;;;;10.17;1.50;;;3.60;99.90;;;;;;4159838;28;20843;-80
2023/01/31 01:22:38;;;;;;;13.10;2.00;;;3.60;99.90;;;;;;4160817;28;20498;-79
2023/01/31 01:24:42;;;;;;;12.13;1.80;;;3.60;99.90;;;;;;4158221;28;20481;-80
2023/01/31 01:26:45;;;;;;;10.33;1.90;;;3.50;99.90;;;;;;4151761;28;20576;-79
2023/01/31 01:28:48;;;;;;;11.83;1.67;;;3.20;99.90;;;;;;4156526;28;20944;-79
2023/01/31 01:30:50;;;;;;;17.17;1.80;;;3.50;99.90;;;;;;4161153;28;20462;-80
2023/01/31 01:32:55;;;;;;;17.80;1.83;;;3.50;99.90;;;;;;4171124;28;20441;-79
2023/01/31 01:34:57;;;;;;;10.33;1.50;;;3.50;99.90;;;;;;4152448;28;20988;-79
2023/01/31 01:36:58;;;;;;;6.57;1.40;;;3.50;99.90;;;;;;4154537;28;20486;-80
2023/01/31 01:39:00;;;;;;;13.57;1.57;;;3.40;99.90;;;;;;4161083;28;20458;-79
2023/01/31 01:41:04;;;;;;;14.37;1.80;;;3.40;99.90;;;;;;4154648;28;20635;-80
2023/01/31 01:43:10;;;;;;;9.80;1.53;;;3.40;99.90;;;;;;4154277;28;20542;-79
2023/01/31 01:45:15;;;;;;;8.70;1.57;;;3.40;99.90;;;;;;4160605;28;20468;-81
2023/01/31 01:47:26;;;;;;;8.60;1.67;;;3.40;99.90;;;;;;4153874;28;20496;-79
2023/01/31 01:49:33;;;;;;;9.17;1.67;;;3.40;99.90;;;;;;4153484;28;20545;-79
2023/01/31 01:51:34;;;;;;;6.60;1.47;;;3.40;99.90;;;;;;4156428;28;20558;-80
2023/01/31 01:53:40;;;;;;;9.27;1.80;;;3.40;99.90;;;;;;4156753;28;20553;-79
2023/01/31 01:55:46;;;;;;;8.30;1.63;;;3.40;99.90;;;;;;4148412;28;20831;-79
2023/01/31 01:57:52;;;;;;;6.97;1.40;;;3.40;99.90;;;;;;4157313;28;20518;-80
2023/01/31 02:00:01;;;;;;;9.73;1.53;;;3.40;99.90;;;;;;4155211;28;20485;-80
2023/01/31 02:02:06;;;;;;;13.57;2.33;;;3.40;99.90;;;;;;4157364;28;21019;-80
2023/01/31 02:04:12;;;;;;;8.83;1.90;;;3.40;99.90;;;;;;4152538;28;21158;-79
2023/01/31 02:06:15;;;;;;;10.90;1.80;;;3.40;99.90;;;;;;4152190;28;20546;-80
2023/01/31 02:08:21;;;;;;;12.80;2.20;;;3.40;99.90;;;;;;4154296;28;20486;-80
2023/01/31 02:10:26;;;;;;;8.83;1.63;;;3.50;99.90;;;;;;4155556;28;20546;-80
2023/01/31 02:12:30;;;;;;;10.47;1.50;;;3.40;99.90;;;;;;4152687;28;20547;-79
2023/01/31 02:14:34;;;;;;;8.27;1.63;;;3.50;99.90;;;;;;4153697;28;20474;-79
2023/01/31 02:16:36;;;;;;;13.17;2.30;;;3.50;99.90;;;;;;4155376;28;20478;-80
2023/01/31 02:18:38;;;;;;;9.97;1.77;;;3.50;99.90;;;;;;4154289;28;20557;-79
2023/01/31 02:21:30;;;;;;;8.70;1.73;;;3.40;99.90;;;;;;4153786;28;20494;-80
2023/01/31 02:23:56;;;;;;;13.23;1.53;;;3.40;99.90;;;;;;4148781;28;20517;-79
2023/01/31 02:26:31;;;;;;;8.70;1.53;;;3.50;99.90;;;;;;4152794;28;20554;-80
2023/01/31 02:28:56;;;;;;;10.10;1.63;;;3.40;99.90;;;;;;4143990;28;20584;-80
2023/01/31 02:31:40;;;;;;;9.30;1.70;;;3.40;99.90;;;;;;4149925;28;20975;-79
2023/01/31 02:33:49;;;;;;;8.13;1.63;;;3.40;99.90;;;;;;4148495;28;21097;-79
2023/01/31 02:35:59;;;;;;;8.90;1.30;;;3.50;99.90;;;;;;4152093;28;20489;-79
2023/01/31 02:38:12;;;;;;;4.47;1.10;;;3.50;99.90;;;;;;4148944;28;20489;-79
2023/01/31 02:40:22;;;;;;;7.83;1.40;;;3.50;99.90;;;;;;4152648;28;20462;-80
2023/01/31 02:42:33;;;;;;;4.63;1.00;;;3.50;99.90;;;;;;4155599;28;21018;-80
2023/01/31 02:44:59;;;;;;;9.43;1.50;;;3.50;99.90;;;;;;4152242;28;20476;-79
2023/01/31 02:47:08;;;;;;;8.93;1.57;;;3.50;99.90;;;;;;4155336;28;20504;-79
2023/01/31 02:49:33;;;;;;;7.67;1.03;;;3.60;99.90;;;;;;4152297;28;20544;-79
2023/01/31 02:52:14;;;;;;;7.80;1.53;;;3.50;99.90;;;;;;4150808;28;20484;-79
2023/01/31 02:54:07;;;;;;;4.30;1.17;;;3.50;99.90;;;;;;4153641;28;20500;-79
2023/01/31 02:56:18;;;;;;;9.83;1.50;;;3.50;99.90;;;;;;4151540;28;20492;-79
2023/01/31 02:58:22;;;;;;;7.33;1.47;;;3.50;99.90;;;;;;4155575;28;20447;-80
2023/01/31 03:00:25;;;;;;;8.93;1.20;;;3.50;99.90;;;;;;4155349;28;20466;-79
2023/01/31 03:02:28;;;;;;;7.13;1.37;;;3.50;99.90;;;;;;4160921;28;20514;-79
2023/01/31 03:04:35;;;;;;;8.43;1.33;;;3.40;99.90;;;;;;4159142;28;20502;-79
2023/01/31 03:07:00;;;;;;;10.90;1.33;;;3.20;99.90;;;;;;4157248;28;20470;-79
2023/01/31 03:09:07;;;;;;;8.10;1.30;;;3.50;99.90;;;;;;4162821;28;20476;-79
2023/01/31 03:11:10;;;;;;;11.87;1.70;;;3.50;99.90;;;;;;4154446;28;20818;-80
2023/01/31 03:13:26;;;;;;;4.73;1.00;;;3.50;99.90;;;;;;4155291;28;20457;-78
2023/01/31 03:18:07;;;;;;;8.90;1.20;;;3.50;99.90;;;;;;4160831;28;20497;-79
2023/01/31 03:20:15;;;;;;;9.27;1.83;;;3.50;99.90;;;;;;4162583;28;21422;-79
2023/01/31 03:22:25;;;;;;;6.17;1.20;;;3.50;99.90;;;;;;4161032;28;21057;-79
2023/01/31 03:24:29;;;;;;;10.53;1.63;;;3.50;99.90;;;;;;4170650;28;21044;-79
2023/01/31 03:26:31;;;;;;;12.60;1.83;;;3.50;99.90;;;;;;4152813;28;20541;-79
2023/01/31 03:28:35;;;;;;;6.80;1.17;;;3.50;99.90;;;;;;4152588;28;20944;-79
2023/01/31 03:30:41;;;;;;;10.03;1.60;;;3.50;99.90;;;;;;4152871;28;20851;-80
2023/01/31 03:32:49;;;;;;;13.57;1.60;;;3.50;99.90;;;;;;4150988;28;20495;-80
2023/01/31 03:34:52;;;;;;;7.83;1.40;;;3.50;99.90;;;;;;4161444;28;20975;-80
2023/01/31 03:36:58;;;;;;;7.27;1.50;;;3.50;99.90;;;;;;4154521;28;20931;-80
2023/01/31 03:39:11;;;;;;;11.73;1.67;;;3.50;99.90;;;;;;4155966;28;20505;-79
2023/01/31 03:41:22;;;;;;;10.70;1.60;;;3.50;99.90;;;;;;4158716;28;20454;-79
2023/01/31 03:43:28;;;;;;;8.53;1.53;;;3.50;99.90;;;;;;4162156;28;20967;-80
2023/01/31 03:45:34;;;;;;;8.80;1.60;;;3.50;99.90;;;;;;4155924;28;21157;-79
2023/01/31 03:47:39;;;;;;;10.17;1.70;;;3.50;99.90;;;;;;4161412;28;20512;-79
2023/01/31 03:49:43;;;;;;;8.83;1.70;;;3.50;99.90;;;;;;4154151;28;20469;-78
2023/01/31 03:51:48;;;;;;;5.43;1.40;;;3.50;99.90;;;;;;4154719;28;20516;-79
2023/01/31 03:53:54;;;;;;;10.47;2.00;;;3.50;99.90;;;;;;4153254;28;20450;-79
2023/01/31 03:55:59;;;;;;;13.80;2.50;;;3.50;99.90;;;;;;4156437;28;20862;-79
2023/01/31 03:58:03;;;;;;;11.43;1.80;;;3.50;99.90;;;;;;4157099;28;20466;-80
2023/01/31 04:00:09;;;;;;;16.23;2.77;;;3.50;99.90;;;;;;4159557;28;20454;-79
2023/01/31 04:02:14;;;;;;;13.47;2.27;;;3.50;99.90;;;;;;4153654;28;20584;-80
2023/01/31 04:04:20;;;;;;;13.50;2.17;;;3.50;99.90;;;;;;4170120;28;20472;-79
2023/01/31 04:06:22;;;;;;;9.70;2.43;;;3.50;99.90;;;;;;4150929;28;20971;-78
2023/01/31 04:08:24;;;;;;;12.60;1.37;;;3.50;99.90;;;;;;4157448;28;20464;-79
2023/01/31 04:10:28;;;;;;;12.57;1.97;;;3.50;99.90;;;;;;4156430;28;20510;-79
2023/01/31 04:12:34;;;;;;;14.23;1.97;;;3.50;99.90;;;;;;4161221;28;20481;-79
2023/01/31 04:14:36;;;;;;;8.53;1.80;;;3.50;99.90;;;;;;4157023;28;20464;-79
2023/01/31 04:16:38;;;;;;;12.20;1.80;;;3.50;99.90;;;;;;4153812;28;21225;-79
2023/01/31 04:18:40;;;;;;;14.33;1.90;;;3.50;99.90;;;;;;4155878;28;20446;-79
2023/01/31 04:20:42;;;;;;;10.50;2.10;;;3.50;99.90;;;;;;4159040;28;20831;-78
2023/01/31 04:22:44;;;;;;;12.50;1.90;;;3.50;99.90;;;;;;4156679;28;20513;-79
2023/01/31 04:24:46;;;;;;;13.10;1.97;;;3.50;99.90;;;;;;4160625;28;20568;-79
2023/01/31 04:26:49;;;;;;;8.80;2.07;;;3.40;99.90;;;;;;4160709;28;21065;-79
2023/01/31 04:28:51;;;;;;;12.53;1.77;;;3.40;99.90;;;;;;4169345;28;20574;-80
2023/01/31 04:30:54;;;;;;;12.07;2.00;;;3.30;99.90;;;;;;4156656;28;20541;-80
2023/01/31 04:32:57;;;;;;;20.97;2.00;;;3.30;99.90;;;;;;4153296;28;20451;-78
2023/01/31 04:34:59;;;;;;;13.60;1.97;;;3.30;99.90;;;;;;4155013;28;20513;-79
2023/01/31 04:37:01;;;;;;;12.77;1.50;;;3.20;99.90;;;;;;4154432;28;20990;-78
2023/01/31 04:39:03;;;;;;;14.50;1.70;;;3.20;99.90;;;;;;4153329;28;20458;-79
2023/01/31 04:41:05;;;;;;;12.17;1.80;;;3.20;99.90;;;;;;4158939;28;20477;-78
2023/01/31 04:43:08;;;;;;;18.37;1.60;;;3.20;99.90;;;;;;4171230;28;20951;-79
2023/01/31 04:45:11;;;;;;;12.20;1.70;;;3.20;99.90;;;;;;4170323;28;20890;-80
2023/01/31 04:47:13;;;;;;;6.87;1.50;;;3.20;99.90;;;;;;4154545;28;20478;-79
2023/01/31 04:49:15;;;;;;;11.07;1.50;;;3.20;99.90;;;;;;4155159;28;20451;-79
2023/01/31 04:51:17;;;;;;;9.57;1.50;;;3.20;99.90;;;;;;4153959;28;20457;-79
2023/01/31 04:53:20;;;;;;;11.40;1.20;;;3.20;99.90;;;;;;4153811;28;20459;-81
2023/01/31 04:55:23;;;;;;;10.57;1.87;;;3.20;99.90;;;;;;4173480;28;20468;-78
2023/01/31 04:57:25;;;;;;;14.23;2.90;;;3.10;99.90;;;;;;4156785;28;20564;-79
2023/01/31 04:59:28;;;;;;;9.45;1.80;;;3.20;99.90;;;;;;4160166;28;20456;-80
2023/01/31 05:01:30;;;;;;;13.43;1.60;;;3.10;99.90;;;;;;4154740;28;20216;-80
2023/01/31 05:03:32;;;;;;;10.67;1.47;;;3.30;99.90;;;;;;4154651;28;21101;-80
2023/01/31 05:05:34;;;;;;;15.77;2.40;;;3.10;99.90;;;;;;4154014;28;20502;-81
2023/01/31 05:07:36;;;;;;;10.47;1.67;;;3.10;99.90;;;;;;4155191;28;20527;-80
2023/01/31 05:09:38;;;;;;;12.97;2.00;;;3.10;99.90;;;;;;4155712;28;20462;-80
2023/01/31 05:11:40;;;;;;;7.07;1.50;;;3.10;99.90;;;;;;4159097;28;20445;-80
2023/01/31 05:13:42;;;;;;;7.33;1.60;;;3.10;99.90;;;;;;4151928;28;21108;-81
2023/01/31 05:15:48;;;;;;;5.93;1.87;;;3.10;99.90;;;;;;4155991;28;20509;-80
2023/01/31 05:17:53;;;;;;;8.93;1.80;;;3.10;99.90;;;;;;4156519;28;20482;-80
2023/01/31 05:19:55;;;;;;;12.30;1.70;;;3.10;99.90;;;;;;4155982;28;20490;-79
2023/01/31 05:21:58;;;;;;;12.43;2.00;;;3.00;99.90;;;;;;4157966;28;20505;-80
2023/01/31 05:24:00;;;;;;;14.57;1.60;;;3.00;99.90;;;;;;4156198;28;20467;-80
2023/01/31 05:26:02;;;;;;;5.73;1.40;;;3.00;99.90;;;;;;4155038;28;20520;-81
2023/01/31 05:28:05;;;;;;;12.50;1.60;;;3.00;99.90;;;;;;4162594;28;21026;-80
2023/01/31 05:30:08;;;;;;;11.73;1.80;;;3.00;99.90;;;;;;4153790;28;20538;-80
2023/01/31 05:32:13;;;;;;;6.63;1.30;;;3.00;99.90;;;;;;4152203;28;20852;-80
2023/01/31 05:34:15;;;;;;;10.73;1.60;;;3.00;99.90;;;;;;4162019;28;20827;-79
2023/01/31 05:36:17;;;;;;;7.87;1.30;;;3.00;99.90;;;;;;4158450;28;20455;-81
2023/01/31 05:38:19;;;;;;;10.57;2.00;;;3.00;99.90;;;;;;4169820;28;21074;-80
2023/01/31 05:40:22;;;;;;;12.53;1.90;;;3.00;99.90;;;;;;4156836;28;20508;-80
2023/01/31 05:42:24;;;;;;;11.80;1.93;;;3.00;99.90;;;;;;4154234;28;20470;-80
2023/01/31 05:44:26;;;;;;;10.13;1.50;;;3.00;99.90;;;;;;4166212;28;20447;-80
2023/01/31 05:46:28;;;;;;;15.23;3.10;;;3.00;99.90;;;;;;4152765;28;20446;-81
2023/01/31 05:48:31;;;;;;;12.77;2.20;;;2.80;99.90;;;;;;4152433;28;21028;-80
2023/01/31 05:50:33;;;;;;;12.13;2.03;;;3.00;99.90;;;;;;4155681;28;20497;-80
2023/01/31 05:52:35;;;;;;;13.27;2.00;;;2.90;99.90;;;;;;4166210;28;21499;-79
2023/01/31 05:54:37;;;;;;;8.30;1.57;;;2.90;99.90;;;;;;4152796;28;21021;-79
2023/01/31 05:56:39;;;;;;;7.83;1.83;;;3.00;99.90;;;;;;4151267;28;21085;-81
2023/01/31 05:58:41;;;;;;;9.13;1.60;;;3.00;99.90;;;;;;4152043;28;20463;-80
2023/01/31 06:00:43;;;;;;;7.43;1.33;;;3.00;99.90;;;;;;4154728;28;20533;-80
2023/01/31 06:02:46;;;;;;;12.33;1.80;;;3.00;99.90;;;;;;4150964;28;20548;-80
2023/01/31 06:04:50;;;;;;;10.53;2.03;;;3.00;99.90;;;;;;4153280;28;20454;-80
2023/01/31 06:06:52;;;;;;;6.60;1.60;;;3.00;99.90;;;;;;4154297;28;20481;-79
2023/01/31 06:08:54;;;;;;;6.50;2.20;;;3.00;99.90;;;;;;4156485;28;20548;-80
2023/01/31 06:10:56;;;;;;;16.07;3.00;;;3.00;99.90;;;;;;4153484;28;20517;-79
2023/01/31 06:12:58;;;;;;;11.53;2.97;;;3.00;99.90;;;;;;4157926;28;20434;-79
2023/01/31 06:15:02;;;;;;;14.90;4.00;;;3.00;99.90;;;;;;4156650;28;20513;-81
2023/01/31 06:17:04;;;;;;;16.53;4.73;;;3.00;99.90;;;;;;4155972;28;20498;-81
2023/01/31 06:19:06;;;;;;;16.50;3.13;;;3.10;99.90;;;;;;4161764;28;20451;-81
2023/01/31 06:21:10;;;;;;;13.17;2.20;;;3.10;99.90;;;;;;4157867;28;20478;-81
2023/01/31 06:23:12;;;;;;;9.27;2.20;;;3.20;99.90;;;;;;4157404;28;20481;-81
2023/01/31 06:25:14;;;;;;;8.90;1.80;;;3.20;99.90;;;;;;4157256;28;20500;-81
2023/01/31 06:27:18;;;;;;;19.73;2.50;;;3.20;99.90;;;;;;4175400;28;20915;-81
2023/01/31 06:29:20;;;;;;;11.87;2.17;;;3.20;99.90;;;;;;4152350;28;20814;-81
2023/01/31 06:31:22;;;;;;;12.47;1.77;;;2.90;99.90;;;;;;4171945;28;21058;-81
2023/01/31 06:33:24;;;;;;;9.00;1.70;;;3.20;99.90;;;;;;4155910;28;21812;-81
2023/01/31 06:35:26;;;;;;;15.73;2.67;;;3.20;99.90;;;;;;4163180;28;20461;-81
2023/01/31 06:37:29;;;;;;;15.87;1.57;;;3.70;99.90;;;;;;4158726;28;20477;-81
2023/01/31 06:39:31;;;;;;;6.83;1.87;;;3.20;99.90;;;;;;4158421;28;20588;-81
2023/01/31 06:41:34;;;;;;;12.30;1.70;;;3.30;99.90;;;;;;4155979;28;21053;-81
2023/01/31 06:43:38;;;;;;;12.30;2.37;;;3.30;99.90;;;;;;4158015;28;20502;-81
2023/01/31 06:45:43;;;;;;;8.17;1.47;;;3.30;99.90;;;;;;4161972;28;20465;-81
2023/01/31 06:47:45;;;;;;;13.40;2.30;;;3.30;99.90;;;;;;4174201;28;20480;-81
2023/01/31 06:49:47;;;;;;;7.53;1.13;;;3.30;99.90;;;;;;4159013;28;20500;-80
2023/01/31 06:51:49;;;;;;;10.47;2.30;;;3.30;99.90;;;;;;4155811;28;20455;-81
2023/01/31 06:53:52;;;;;;;8.40;1.53;;;3.50;99.90;;;;;;4152411;28;20473;-80
2023/01/31 06:55:54;;;;;;;9.10;1.50;;;3.30;99.90;;;;;;4168150;28;20450;-80
2023/01/31 06:57:56;;;;;;;17.13;1.63;;;3.20;99.90;;;;;;4155645;28;20473;-80
2023/01/31 06:59:58;;;;;;;16.03;2.50;;;3.30;99.90;;;;;;4158948;28;20539;-80
2023/01/31 07:02:00;;;;;;;15.37;1.67;;;3.20;99.90;;;;;;4156480;28;20457;-81
2023/01/31 07:04:02;;;;;;;7.40;1.40;;;3.20;99.90;;;;;;4157970;28;20573;-81
2023/01/31 07:06:04;;;;;;;6.20;1.50;;;3.30;99.90;;;;;;4157962;28;20453;-81
2023/01/31 07:08:06;;;;;;;11.93;1.50;;;3.50;99.90;;;;;;4151141;28;20561;-81
2023/01/31 07:10:11;;;;;;;11.67;1.63;;;3.40;99.90;;;;;;4157639;28;20479;-81
2023/01/31 07:12:15;;;;;;;10.67;1.77;;;3.30;99.90;;;;;;4155784;28;20893;-81
2023/01/31 07:14:16;;;;;;;11.37;1.80;;;3.30;99.90;;;;;;4156247;28;20451;-81
2023/01/31 07:16:18;;;;;;;8.60;1.60;;;3.30;99.90;;;;;;4158685;28;20453;-81
2023/01/31 07:18:23;;;;;;;10.00;1.53;;;3.30;99.90;;;;;;4153394;28;20546;-81
2023/01/31 07:20:25;;;;;;;11.90;1.40;;;3.30;99.90;;;;;;4172934;28;20461;-81
2023/01/31 07:22:27;;;;;;;8.37;1.40;;;3.30;99.90;;;;;;4155928;28;20863;-81
2023/01/31 07:24:29;;;;;;;12.50;1.83;;;3.40;99.90;;;;;;4155614;28;20485;-81
2023/01/31 07:26:33;;;;;;;9.30;2.00;;;3.40;99.90;;;;;;4164762;28;20512;-81
2023/01/31 07:28:35;;;;;;;8.07;1.60;;;3.40;99.90;;;;;;4162691;28;20450;-81
2023/01/31 07:30:38;;;;;;;6.53;1.33;;;3.40;99.90;;;;;;4166135;28;20458;-81
2023/01/31 07:32:40;;;;;;;5.73;1.30;;;3.40;99.90;;;;;;4163269;28;20464;-80
2023/01/31 07:34:42;;;;;;;11.27;1.30;;;3.50;99.90;;;;;;4163904;28;20466;-80
2023/01/31 07:36:44;;;;;;;6.13;1.43;;;3.50;99.90;;;;;;4156413;28;20481;-78
2023/01/31 07:38:46;;;;;;;8.97;1.40;;;3.50;99.90;;;;;;4162058;28;20486;-79
2023/01/31 07:40:48;;;;;;;16.90;1.60;;;3.50;99.90;;;;;;4158543;28;20454;-81
2023/01/31 07:42:51;;;;;;;13.20;1.43;;;3.40;99.90;;;;;;4156941;28;20490;-80
2023/01/31 07:44:53;;;;;;;10.27;1.60;;;3.40;99.90;;;;;;4158351;28;20503;-80
2023/01/31 07:46:55;;;;;;;10.60;1.30;;;3.40;99.90;;;;;;4158125;28;20505;-80
2023/01/31 07:48:57;;;;;;;8.10;1.80;;;3.40;99.90;;;;;;4155060;28;21306;-81
2023/01/31 07:51:01;;;;;;;12.33;1.67;;;3.40;99.90;;;;;;4154132;28;20479;-80
2023/01/31 07:53:03;;;;;;;6.73;1.77;;;3.40;99.90;;;;;;4153887;28;20441;-77
2023/01/31 07:55:05;;;;;;;13.57;1.77;;;3.50;99.90;;;;;;4155204;28;20480;-78
2023/01/31 07:57:07;;;;;;;9.73;1.80;;;3.60;99.90;;;;;;4152304;28;20493;-78
2023/01/31 07:59:11;;;;;;;12.60;2.07;;;3.50;99.90;;;;;;4151201;28;20527;-79
2023/01/31 08:03:35;;;;;;;7.60;1.63;;;3.50;99.90;;;;;;4155431;28;20485;-79
2023/01/31 08:05:37;;;;;;;8.67;1.93;;;3.50;99.90;;;;;;4153773;28;20465;-78
2023/01/31 08:07:38;;;;;;;12.57;1.93;;;3.50;99.90;;;;;;4158291;28;21026;-79
2023/01/31 08:09:42;;;;;;;14.10;1.93;;;3.50;99.90;;;;;;4154229;28;20501;-79
2023/01/31 08:11:44;;;;;;;13.47;1.93;;;3.60;99.90;;;;;;4158602;28;20475;-78
2023/01/31 08:13:46;;;;;;;6.87;1.77;;;3.60;99.90;;;;;;4151612;28;20517;-78
2023/01/31 08:15:51;;;;;;;10.77;1.87;;;3.60;99.90;;;;;;4155093;28;20823;-78
2023/01/31 08:17:53;;;;;;;10.70;2.23;;;3.60;99.90;;;;;;4158705;28;20469;-77
2023/01/31 08:19:55;;;;;;;9.00;2.00;;;3.60;99.90;;;;;;4155899;28;20486;-77
2023/01/31 08:21:57;;;;;;;10.60;2.03;;;3.60;99.90;;;;;;4158313;28;20469;-78
2023/01/31 08:23:58;;;;;;;10.83;1.70;;;3.60;99.90;;;;;;4152526;28;20466;-77
2023/01/31 08:26:03;;;;;;;7.27;1.50;;;3.60;99.90;;;;;;4161014;28;20472;-77
2023/01/31 08:28:05;;;;;;;5.83;1.53;;;3.70;99.90;;;;;;4157443;28;20501;-77
2023/01/31 08:30:08;;;;;;;18.73;2.23;;;3.70;99.90;;;;;;4157483;28;20499;-78
2023/01/31 08:32:11;;;;;;;10.43;1.90;;;3.70;99.90;;;;;;4154197;28;20478;-77
2023/01/31 08:34:13;;;;;;;9.63;1.90;;;3.80;99.90;;;;;;4154308;28;20465;-77
2023/01/31 08:36:18;;;;;;;10.10;1.50;;;3.80;99.90;;;;;;4152066;28;20485;-77
2023/01/31 08:38:20;;;;;;;7.27;2.03;;;3.80;99.90;;;;;;4152189;28;20496;-77
2023/01/31 08:40:21;;;;;;;7.90;1.53;;;3.90;99.90;;;;;;4165339;28;20471;-78
2023/01/31 08:42:23;;;;;;;7.30;1.80;;;3.90;99.90;;;;;;4152912;28;20489;-78
2023/01/31 08:44:25;;;;;;;7.37;1.70;;;3.90;99.90;;;;;;4153002;28;20477;-77
2023/01/31 08:46:29;;;;;;;14.13;1.97;;;3.90;99.90;;;;;;4155067;28;20536;-77
2023/01/31 08:48:34;;;;;;;6.50;1.57;;;3.90;99.90;;;;;;4156740;28;20480;-78
2023/01/31 08:50:36;;;;;;;6.60;1.20;;;4.00;99.90;;;;;;4153633;28;20482;-78
2023/01/31 08:52:38;;;;;;;13.37;1.80;;;4.00;99.90;;;;;;4154977;28;20513;-78
2023/01/31 08:54:40;;;;;;;9.63;2.33;;;4.00;99.90;;;;;;4153886;28;20458;-78
2023/01/31 08:56:42;;;;;;;6.50;1.40;;;4.00;99.90;;;;;;4157318;28;20473;-77
2023/01/31 08:58:45;;;;;;;6.63;1.60;;;4.00;99.90;;;;;;4154480;28;20458;-78
2023/01/31 09:00:47;;;;;;;9.20;1.73;;;4.10;99.90;;;;;;4153878;28;20509;-78
2023/01/31 09:02:51;;;;;;;11.53;1.67;;;4.10;99.90;;;;;;4159232;28;20527;-78
2023/01/31 09:04:55;;;;;;;10.00;1.97;;;4.10;99.90;;;;;;4158940;28;20528;-78
2023/01/31 09:06:57;;;;;;;9.87;1.83;;;4.10;99.90;;;;;;4155763;28;20529;-78
2023/01/31 09:08:59;;;;;;;12.20;2.20;;;4.10;99.90;;;;;;4159457;28;21273;-78
2023/01/31 09:11:01;;;;;;;6.83;1.90;;;4.10;99.90;;;;;;4159493;28;20446;-78
2023/01/31 09:13:03;;;;;;;10.93;2.30;;;4.20;99.90;;;;;;4156227;28;20484;-78
2023/01/31 09:15:06;;;;;;;4.97;1.57;;;4.40;99.90;;;;;;4171864;28;20485;-81
2023/01/31 09:17:09;;;;;;;7.17;1.30;;;4.20;99.90;;;;;;4159689;28;21137;-79
2023/01/31 09:19:11;;;;;;;7.23;1.50;;;4.20;99.90;;;;;;4154677;28;20541;-78
2023/01/31 09:21:16;;;;;;;8.83;1.80;;;4.30;99.90;;;;;;4157918;28;21031;-76
2023/01/31 09:23:19;;;;;;;8.17;1.80;;;4.20;99.90;;;;;;4154702;28;21354;-78
2023/01/31 09:25:21;;;;;;;7.83;1.33;;;4.20;99.90;;;;;;4155494;28;20462;-79
2023/01/31 09:27:23;;;;;;;7.57;1.40;;;4.20;99.90;;;;;;4156187;28;20509;-77
2023/01/31 09:29:25;;;;;;;11.70;1.60;;;4.40;99.90;;;;;;4155726;28;20497;-78
2023/01/31 09:31:27;;;;;;;9.77;1.40;;;4.30;99.90;;;;;;4153158;28;20477;-80
2023/01/31 09:33:31;;;;;;;11.20;1.90;;;4.40;99.90;;;;;;4158275;28;20453;-79
2023/01/31 09:35:33;;;;;;;14.43;2.03;;;4.30;99.90;;;;;;4158374;28;20493;-79
2023/01/31 09:37:40;;;;;;;9.90;1.77;;;4.30;99.90;;;;;;4153569;28;20483;-79
2023/01/31 09:39:42;;;;;;;9.00;1.53;;;4.40;99.90;;;;;;4154391;28;21170;-80
2023/01/31 09:41:48;;;;;;;11.60;1.60;;;4.40;99.90;;;;;;4153954;28;20474;-80
2023/01/31 09:43:55;;;;;;;11.33;1.47;;;4.40;99.90;;;;;;4153688;28;20478;-79
2023/01/31 09:46:02;;;;;;;9.77;1.70;;;4.50;99.90;;;;;;4156781;28;20880;-78
2023/01/31 09:48:07;;;;;;;8.03;1.67;;;4.50;99.90;;;;;;4155313;28;20521;-79
2023/01/31 09:50:20;;;;;;;9.90;2.27;;;4.50;99.90;;;;;;4149924;28;20462;-79
2023/01/31 09:52:22;;;;;;;7.57;1.57;;;4.50;99.90;;;;;;4151325;28;20457;-79
2023/01/31 09:54:29;;;;;;;12.97;1.57;;;4.50;99.90;;;;;;4154657;28;20481;-79
2023/01/31 09:56:40;;;;;;;9.17;1.80;;;4.60;99.90;;;;;;4155197;28;20452;-79
2023/01/31 09:58:53;;;;;;;11.27;2.20;;;4.60;99.90;;;;;;4172967;28;20456;-78
2023/01/31 10:01:05;;;;;;;7.27;1.57;;;4.70;99.90;;;;;;4161021;28;20529;-79
2023/01/31 10:03:39;;;;;;;10.17;2.07;;;4.70;99.90;;;;;;4157205;28;20477;-80
2023/01/31 10:05:48;;;;;;;7.83;1.60;;;4.80;99.90;;;;;;4173112;28;20445;-80
2023/01/31 10:08:00;;;;;;;15.80;2.20;;;4.90;99.90;;;;;;4155939;28;20529;-78
2023/01/31 10:10:15;;;;;;;7.67;1.90;;;4.90;99.90;;;;;;4158155;28;22078;-78
2023/01/31 10:12:21;;;;;;;9.37;1.73;;;4.90;99.90;;;;;;4156500;28;20512;-80
2023/01/31 10:14:32;;;;;;;12.93;1.93;;;5.00;99.90;;;;;;4153530;28;20996;-79
2023/01/31 10:16:39;;;;;;;3.20;1.53;;;5.10;99.90;;;;;;4153390;28;20474;-78
2023/01/31 10:18:47;;;;;;;10.00;1.93;;;5.10;99.90;;;;;;4157299;28;20451;-79
2023/01/31 10:20:52;;;;;;;6.87;1.70;;;5.20;99.90;;;;;;4158365;28;20524;-79
2023/01/31 10:23:03;;;;;;;9.97;1.80;;;5.20;99.90;;;;;;4173612;28;20466;-79
2023/01/31 10:25:16;;;;;;;9.23;1.90;;;5.20;99.90;;;;;;4160958;28;20541;-80
2023/01/31 10:27:32;;;;;;;10.43;1.90;;;5.20;99.90;;;;;;4163352;28;20492;-81
2023/01/31 10:29:37;;;;;;;12.20;2.03;;;5.20;99.90;;;;;;4161010;28;20952;-79
2023/01/31 10:31:44;;;;;;;11.30;1.60;;;5.20;99.90;;;;;;4163277;28;20451;-79
2023/01/31 10:33:53;;;;;;;12.60;2.40;;;5.30;99.90;;;;;;4162340;28;20454;-80
2023/01/31 10:35:58;;;;;;;15.40;2.80;;;5.40;99.90;;;;;;4163637;28;20465;-80
2023/01/31 10:38:05;;;;;;;9.80;2.07;;;5.40;99.90;;;;;;4158206;28;20858;-79
2023/01/31 10:40:15;;;;;;;10.07;2.30;;;5.40;99.90;;;;;;4161109;28;20471;-79
2023/01/31 10:42:25;;;;;;;9.73;1.90;;;5.50;99.90;;;;;;4170874;28;20454;-80
2023/01/31 10:44:40;;;;;;;11.77;2.37;;;5.50;99.90;;;;;;4158046;28;20471;-79
2023/01/31 10:46:42;;;;;;;11.40;1.77;;;5.40;99.90;;;;;;4155037;28;21011;-79
2023/01/31 10:48:47;;;;;;;12.60;2.47;;;5.40;99.90;;;;;;4154441;28;20619;-78
2023/01/31 10:51:00;;;;;;;14.50;3.27;;;5.50;99.90;;;;;;4150553;28;20447;-79
2023/01/31 10:53:16;;;;;;;14.03;2.33;;;5.30;99.90;;;;;;4154542;28;20458;-80
2023/01/31 10:55:41;;;;;;;12.23;2.17;;;5.40;99.90;;;;;;4158755;28;20999;-78
2023/01/31 10:57:43;;;;;;;11.20;2.17;;;5.40;99.90;;;;;;4155414;28;20528;-80